sensor_id;sensor_type;location;lat;lon;timestamp;pressure;altitude;pressure_sealevel;temperature;humidity
39341;BME280;25059;52.132;21.062;2023-05-12T00:00:24;101006.78;;;16.24;38.11
39341;BME280;25059;52.132;21.062;2023-05-12T00:03:13;101004.34;;;16.36;37.48
39341;BME280;25059;52.132;21.062;2023-05-12T00:06:23;101012.22;;;16.38;37.95
39341;BME280;25059;52.132;21.062;2023-05-12T00:09:07;101020.38;;;16.18;38.43
39341;BME280;25059;52.132;21.062;2023-05-12T00:11:53;101017.31;;;16.25;37.86
39341;BME280;25059;52.132;21.062;2023-05-12T00:14:37;101014.53;;;16.11;38.19
39341;BME280;25059;52.132;21.062;2023-05-12T00:17:22;101020.44;;;16.16;38.17
39341;BME280;25059;52.132;21.062;2023-05-12T00:20:07;101007.19;;;16.16;38.19
39341;BME280;25059;52.132;21.062;2023-05-12T00:22:52;101022.63;;;16.25;37.90
39341;BME280;25059;52.132;21.062;2023-05-12T00:25:36;101019.75;;;16.12;38.03
39341;BME280;25059;52.132;21.062;2023-05-12T00:28:21;101025.06;;;16.12;38.36
39341;BME280;25059;52.132;21.062;2023-05-12T00:31:06;101023.66;;;16.05;38.18
39341;BME280;25059;52.132;21.062;2023-05-12T00:33:51;101022.72;;;16.06;38.37
39341;BME280;25059;52.132;21.062;2023-05-12T00:36:35;101015.53;;;15.91;38.53
39341;BME280;25059;52.132;21.062;2023-05-12T00:39:20;101000.31;;;15.95;38.37
39341;BME280;25059;52.132;21.062;2023-05-12T00:42:05;101018.03;;;15.94;38.29
39341;BME280;25059;52.132;21.062;2023-05-12T00:44:49;101019.97;;;15.91;38.57
39341;BME280;25059;52.132;21.062;2023-05-12T00:47:34;101026.13;;;15.91;38.44
39341;BME280;25059;52.132;21.062;2023-05-12T00:50:20;101026.75;;;15.96;38.39
39341;BME280;25059;52.132;21.062;2023-05-12T00:53:05;101028.41;;;15.99;38.62
39341;BME280;25059;52.132;21.062;2023-05-12T00:55:50;101008.59;;;15.89;38.40
39341;BME280;25059;52.132;21.062;2023-05-12T00:58:34;101029.34;;;15.98;38.09
39341;BME280;25059;52.132;21.062;2023-05-12T01:01:19;101030.59;;;16.25;37.65
39341;BME280;25059;52.132;21.062;2023-05-12T01:04:04;101036.59;;;16.29;37.69
39341;BME280;25059;52.132;21.062;2023-05-12T01:07:11;101025.91;;;16.30;37.53
39341;BME280;25059;52.132;21.062;2023-05-12T01:09:59;101045.19;;;15.99;38.47
39341;BME280;25059;52.132;21.062;2023-05-12T01:12:44;101045.34;;;15.96;38.12
39341;BME280;25059;52.132;21.062;2023-05-12T01:15:30;101041.91;;;16.11;37.92
39341;BME280;25059;52.132;21.062;2023-05-12T01:18:18;101041.44;;;16.03;38.40
39341;BME280;25059;52.132;21.062;2023-05-12T01:21:03;101039.41;;;15.91;38.54
39341;BME280;25059;52.132;21.062;2023-05-12T01:23:53;101046.34;;;15.94;38.48
39341;BME280;25059;52.132;21.062;2023-05-12T01:26:38;101043.63;;;15.59;38.61
39341;BME280;25059;52.132;21.062;2023-05-12T01:29:24;101041.28;;;15.89;38.38
39341;BME280;25059;52.132;21.062;2023-05-12T01:32:09;101047.44;;;15.90;38.49
39341;BME280;25059;52.132;21.062;2023-05-12T01:34:54;101038.00;;;15.84;38.43
39341;BME280;25059;52.132;21.062;2023-05-12T01:37:38;101041.19;;;15.91;38.39
39341;BME280;25059;52.132;21.062;2023-05-12T01:40:23;101050.41;;;16.01;38.52
39341;BME280;25059;52.132;21.062;2023-05-12T01:43:08;101048.84;;;15.97;38.43
39341;BME280;25059;52.132;21.062;2023-05-12T01:45:52;101048.66;;;15.82;38.32
39341;BME280;25059;52.132;21.062;2023-05-12T01:48:37;101051.25;;;15.84;38.37
39341;BME280;25059;52.132;21.062;2023-05-12T01:51:22;101047.97;;;15.79;38.56
39341;BME280;25059;52.132;21.062;2023-05-12T01:54:06;101032.72;;;15.65;38.74
39341;BME280;25059;52.132;21.062;2023-05-12T01:56:51;101047.25;;;15.75;38.61
39341;BME280;25059;52.132;21.062;2023-05-12T01:59:36;101039.69;;;15.68;38.49
39341;BME280;25059;52.132;21.062;2023-05-12T02:02:20;101043.75;;;15.75;38.36
39341;BME280;25059;52.132;21.062;2023-05-12T02:05:05;101044.69;;;15.74;38.77
39341;BME280;25059;52.132;21.062;2023-05-12T02:07:51;101051.06;;;15.70;39.16
39341;BME280;25059;52.132;21.062;2023-05-12T02:10:35;101054.34;;;15.75;39.08
39341;BME280;25059;52.132;21.062;2023-05-12T02:13:20;101052.53;;;15.58;39.35
39341;BME280;25059;52.132;21.062;2023-05-12T02:16:05;101056.38;;;15.70;38.92
39341;BME280;25059;52.132;21.062;2023-05-12T02:18:50;101054.28;;;15.76;39.13
39341;BME280;25059;52.132;21.062;2023-05-12T02:21:35;101017.47;;;15.51;39.23
39341;BME280;25059;52.132;21.062;2023-05-12T02:24:19;101038.25;;;15.61;39.15
39341;BME280;25059;52.132;21.062;2023-05-12T02:27:04;101056.03;;;15.59;39.00
39341;BME280;25059;52.132;21.062;2023-05-12T02:29:49;101052.06;;;15.48;39.46
39341;BME280;25059;52.132;21.062;2023-05-12T02:32:34;101049.41;;;15.48;39.61
39341;BME280;25059;52.132;21.062;2023-05-12T02:35:19;101051.13;;;15.49;39.37
39341;BME280;25059;52.132;21.062;2023-05-12T02:38:04;101064.97;;;15.37;39.48
39341;BME280;25059;52.132;21.062;2023-05-12T02:40:49;101062.47;;;15.34;39.28
39341;BME280;25059;52.132;21.062;2023-05-12T02:43:33;101071.91;;;15.40;39.59
39341;BME280;25059;52.132;21.062;2023-05-12T02:46:18;101068.91;;;15.29;39.91
39341;BME280;25059;52.132;21.062;2023-05-12T02:49:03;101070.50;;;15.33;39.58
39341;BME280;25059;52.132;21.062;2023-05-12T02:51:47;101072.28;;;15.32;39.29
39341;BME280;25059;52.132;21.062;2023-05-12T02:54:32;101078.22;;;15.56;39.12
39341;BME280;25059;52.132;21.062;2023-05-12T02:57:17;101074.44;;;15.62;38.80
39341;BME280;25059;52.132;21.062;2023-05-12T03:00:03;101080.38;;;15.67;38.63
39341;BME280;25059;52.132;21.062;2023-05-12T03:02:49;101057.66;;;15.61;38.57
39341;BME280;25059;52.132;21.062;2023-05-12T03:05:34;101084.38;;;15.75;38.90
39341;BME280;25059;52.132;21.062;2023-05-12T03:08:19;101076.41;;;15.75;38.94
39341;BME280;25059;52.132;21.062;2023-05-12T03:11:03;101085.31;;;15.74;38.55
39341;BME280;25059;52.132;21.062;2023-05-12T03:13:48;101060.66;;;15.72;38.55
39341;BME280;25059;52.132;21.062;2023-05-12T03:16:33;101062.97;;;15.61;38.37
39341;BME280;25059;52.132;21.062;2023-05-12T03:19:17;101080.00;;;15.74;38.79
39341;BME280;25059;52.132;21.062;2023-05-12T03:22:02;101085.56;;;15.87;38.33
39341;BME280;25059;52.132;21.062;2023-05-12T03:24:47;101082.81;;;15.71;38.71
39341;BME280;25059;52.132;21.062;2023-05-12T03:27:31;101078.53;;;15.86;38.37
39341;BME280;25059;52.132;21.062;2023-05-12T03:30:16;101075.34;;;15.79;38.63
39341;BME280;25059;52.132;21.062;2023-05-12T03:33:00;101077.63;;;15.87;38.09
39341;BME280;25059;52.132;21.062;2023-05-12T03:35:45;101084.03;;;16.00;38.12
39341;BME280;25059;52.132;21.062;2023-05-12T03:38:30;101079.75;;;16.15;37.89
39341;BME280;25059;52.132;21.062;2023-05-12T03:41:15;101083.66;;;16.08;37.87
39341;BME280;25059;52.132;21.062;2023-05-12T03:44:00;101083.03;;;16.37;37.27
39341;BME280;25059;52.132;21.062;2023-05-12T03:46:44;101084.44;;;16.27;37.42
39341;BME280;25059;52.132;21.062;2023-05-12T03:49:29;101092.25;;;16.47;37.18
39341;BME280;25059;52.132;21.062;2023-05-12T03:52:14;101088.31;;;16.55;37.50
39341;BME280;25059;52.132;21.062;2023-05-12T03:54:58;101086.22;;;16.44;37.43
39341;BME280;25059;52.132;21.062;2023-05-12T03:57:42;101095.91;;;16.62;37.32
39341;BME280;25059;52.132;21.062;2023-05-12T04:00:27;101102.41;;;16.74;37.09
39341;BME280;25059;52.132;21.062;2023-05-12T04:03:12;101101.28;;;16.78;36.99
39341;BME280;25059;52.132;21.062;2023-05-12T04:05:57;101109.22;;;16.95;36.76
39341;BME280;25059;52.132;21.062;2023-05-12T04:08:43;101105.25;;;16.87;37.09
39341;BME280;25059;52.132;21.062;2023-05-12T04:11:27;101106.09;;;17.04;36.81
39341;BME280;25059;52.132;21.062;2023-05-12T04:14:12;101105.06;;;17.07;36.61
39341;BME280;25059;52.132;21.062;2023-05-12T04:16:57;101102.91;;;16.98;36.66
39341;BME280;25059;52.132;21.062;2023-05-12T04:19:41;101092.38;;;17.12;36.40
39341;BME280;25059;52.132;21.062;2023-05-12T04:22:26;101114.97;;;17.36;36.42
39341;BME280;25059;52.132;21.062;2023-05-12T04:25:10;101122.06;;;17.20;36.34
39341;BME280;25059;52.132;21.062;2023-05-12T04:27:55;101119.59;;;17.49;36.38
39341;BME280;25059;52.132;21.062;2023-05-12T04:30:40;101105.88;;;17.40;36.50
39341;BME280;25059;52.132;21.062;2023-05-12T04:33:25;101116.94;;;17.49;36.33
39341;BME280;25059;52.132;21.062;2023-05-12T04:36:10;101104.72;;;17.78;35.99
39341;BME280;25059;52.132;21.062;2023-05-12T04:38:56;101122.19;;;17.50;36.42
39341;BME280;25059;52.132;21.062;2023-05-12T04:41:41;101108.53;;;18.03;35.54
39341;BME280;25059;52.132;21.062;2023-05-12T04:44:26;101106.69;;;17.74;35.69
39341;BME280;25059;52.132;21.062;2023-05-12T04:47:11;101101.53;;;17.71;35.80
39341;BME280;25059;52.132;21.062;2023-05-12T04:49:55;101118.31;;;18.19;35.28
39341;BME280;25059;52.132;21.062;2023-05-12T04:52:40;101119.03;;;18.36;34.74
39341;BME280;25059;52.132;21.062;2023-05-12T04:55:25;101122.63;;;18.35;35.04
39341;BME280;25059;52.132;21.062;2023-05-12T04:58:09;101115.69;;;18.33;34.96
39341;BME280;25059;52.132;21.062;2023-05-12T05:00:54;101119.88;;;18.67;34.62
39341;BME280;25059;52.132;21.062;2023-05-12T05:03:39;101122.38;;;18.70;34.53
39341;BME280;25059;52.132;21.062;2023-05-12T05:06:24;101103.56;;;18.57;34.62
39341;BME280;25059;52.132;21.062;2023-05-12T05:09:09;101128.00;;;18.94;34.42
39341;BME280;25059;52.132;21.062;2023-05-12T05:11:53;101133.53;;;19.19;34.16
39341;BME280;25059;52.132;21.062;2023-05-12T05:14:38;101122.69;;;19.08;33.93
39341;BME280;25059;52.132;21.062;2023-05-12T05:17:22;101120.50;;;19.29;33.90
39341;BME280;25059;52.132;21.062;2023-05-12T05:20:07;101134.03;;;19.54;33.89
39341;BME280;25059;52.132;21.062;2023-05-12T05:22:52;101125.53;;;19.33;33.90
39341;BME280;25059;52.132;21.062;2023-05-12T05:25:37;101119.53;;;19.58;33.89
39341;BME280;25059;52.132;21.062;2023-05-12T05:28:22;101133.56;;;20.16;33.08
39341;BME280;25059;52.132;21.062;2023-05-12T05:31:07;101125.84;;;20.11;32.88
39341;BME280;25059;52.132;21.062;2023-05-12T05:33:51;101141.56;;;20.16;32.97
39341;BME280;25059;52.132;21.062;2023-05-12T05:36:36;101147.44;;;19.67;33.52
39341;BME280;25059;52.132;21.062;2023-05-12T05:39:20;101133.97;;;20.10;32.91
39341;BME280;25059;52.132;21.062;2023-05-12T05:42:06;101135.94;;;19.93;33.14
39341;BME280;25059;52.132;21.062;2023-05-12T05:44:50;101142.97;;;20.21;32.48
39341;BME280;25059;52.132;21.062;2023-05-12T05:47:35;101149.63;;;20.02;32.79
39341;BME280;25059;52.132;21.062;2023-05-12T05:50:20;101150.63;;;20.13;32.74
39341;BME280;25059;52.132;21.062;2023-05-12T05:53:05;101151.44;;;20.55;32.17
39341;BME280;25059;52.132;21.062;2023-05-12T05:55:50;101138.94;;;20.55;31.90
39341;BME280;25059;52.132;21.062;2023-05-12T05:58:35;101143.75;;;20.63;32.18
39341;BME280;25059;52.132;21.062;2023-05-12T06:01:19;101149.81;;;20.52;31.78
39341;BME280;25059;52.132;21.062;2023-05-12T06:04:04;101147.94;;;20.80;31.57
39341;BME280;25059;52.132;21.062;2023-05-12T06:06:52;101158.31;;;20.97;31.50
39341;BME280;25059;52.132;21.062;2023-05-12T06:09:37;101146.59;;;21.25;31.30
39341;BME280;25059;52.132;21.062;2023-05-12T06:12:47;101152.78;;;21.25;31.17
39341;BME280;25059;52.132;21.062;2023-05-12T06:15:40;101155.13;;;21.30;31.55
39341;BME280;25059;52.132;21.062;2023-05-12T06:18:55;101164.84;;;21.18;31.92
39341;BME280;25059;52.132;21.062;2023-05-12T06:21:43;101149.56;;;21.08;32.17
39341;BME280;25059;52.132;21.062;2023-05-12T06:24:27;101148.81;;;21.44;31.63
39341;BME280;25059;52.132;21.062;2023-05-12T06:27:15;101163.16;;;21.30;31.80
39341;BME280;25059;52.132;21.062;2023-05-12T06:30:03;101126.53;;;21.80;31.16
39341;BME280;25059;52.132;21.062;2023-05-12T06:32:58;101160.41;;;21.68;31.57
39341;BME280;25059;52.132;21.062;2023-05-12T06:35:53;101154.31;;;21.66;31.95
39341;BME280;25059;52.132;21.062;2023-05-12T06:42:25;101152.28;;;21.70;31.45
39341;BME280;25059;52.132;21.062;2023-05-12T06:45:14;101145.50;;;21.77;31.39
39341;BME280;25059;52.132;21.062;2023-05-12T06:48:02;101168.16;;;22.44;30.75
39341;BME280;25059;52.132;21.062;2023-05-12T06:50:50;101157.34;;;22.46;30.60
39341;BME280;25059;52.132;21.062;2023-05-12T06:53:35;101159.97;;;22.70;30.53
39341;BME280;25059;52.132;21.062;2023-05-12T06:56:29;101160.31;;;22.65;30.88
39341;BME280;25059;52.132;21.062;2023-05-12T06:59:17;101130.44;;;22.59;30.69
39341;BME280;25059;52.132;21.062;2023-05-12T07:02:28;101144.69;;;22.48;30.70
39341;BME280;25059;52.132;21.062;2023-05-12T07:05:30;101159.06;;;22.82;30.59
39341;BME280;25059;52.132;21.062;2023-05-12T07:08:55;101165.69;;;23.11;30.44
39341;BME280;25059;52.132;21.062;2023-05-12T07:11:50;101154.84;;;23.02;29.39
39341;BME280;25059;52.132;21.062;2023-05-12T07:14:35;101154.78;;;22.79;29.96
39341;BME280;25059;52.132;21.062;2023-05-12T07:17:43;101163.50;;;23.05;29.96
39341;BME280;25059;52.132;21.062;2023-05-12T07:20:49;101151.69;;;23.41;29.46
39341;BME280;25059;52.132;21.062;2023-05-12T07:24:00;101109.00;;;23.16;29.39
39341;BME280;25059;52.132;21.062;2023-05-12T07:26:45;101164.59;;;23.47;29.65
39341;BME280;25059;52.132;21.062;2023-05-12T07:29:42;101148.38;;;23.38;29.33
39341;BME280;25059;52.132;21.062;2023-05-12T07:32:35;101148.50;;;23.47;28.76
39341;BME280;25059;52.132;21.062;2023-05-12T07:35:20;101135.09;;;23.59;28.82
39341;BME280;25059;52.132;21.062;2023-05-12T07:38:10;101152.41;;;23.77;28.68
39341;BME280;25059;52.132;21.062;2023-05-12T07:41:14;101149.38;;;23.70;28.56
39341;BME280;25059;52.132;21.062;2023-05-12T07:44:43;101145.66;;;24.26;28.13
39341;BME280;25059;52.132;21.062;2023-05-12T07:47:37;101141.66;;;24.20;27.56
39341;BME280;25059;52.132;21.062;2023-05-12T07:54:49;101125.66;;;24.19;27.17
39341;BME280;25059;52.132;21.062;2023-05-12T08:01:22;101159.34;;;23.91;26.38
39341;BME280;25059;52.132;21.062;2023-05-12T08:05:09;101140.47;;;23.70;24.88
39341;BME280;25059;52.132;21.062;2023-05-12T08:08:59;101171.72;;;24.14;25.06
39341;BME280;25059;52.132;21.062;2023-05-12T08:12:23;101098.72;;;23.66;24.83
39341;BME280;25059;52.132;21.062;2023-05-12T08:15:38;101126.84;;;24.26;24.65
39341;BME280;25059;52.132;21.062;2023-05-12T08:18:31;101158.72;;;24.83;23.79
39341;BME280;25059;52.132;21.062;2023-05-12T08:21:24;101131.03;;;24.19;24.01
39341;BME280;25059;52.132;21.062;2023-05-12T08:24:14;101156.19;;;24.82;23.89
39341;BME280;25059;52.132;21.062;2023-05-12T08:26:59;101154.97;;;24.54;23.57
39341;BME280;25059;52.132;21.062;2023-05-12T08:29:44;101160.19;;;24.66;23.26
39341;BME280;25059;52.132;21.062;2023-05-12T08:32:35;101153.88;;;24.77;22.87
39341;BME280;25059;52.132;21.062;2023-05-12T08:35:23;101165.84;;;25.35;22.94
39341;BME280;25059;52.132;21.062;2023-05-12T08:38:09;101143.84;;;25.00;23.14
39341;BME280;25059;52.132;21.062;2023-05-12T08:41:18;101143.16;;;25.28;23.41
39341;BME280;25059;52.132;21.062;2023-05-12T08:44:38;101158.94;;;25.12;23.25
39341;BME280;25059;52.132;21.062;2023-05-12T08:55:23;101159.28;;;25.59;22.61
39341;BME280;25059;52.132;21.062;2023-05-12T08:58:26;101105.94;;;24.61;22.87
39341;BME280;25059;52.132;21.062;2023-05-12T09:10:23;101129.56;;;25.30;22.28
39341;BME280;25059;52.132;21.062;2023-05-12T09:13:19;101151.06;;;24.99;21.76
39341;BME280;25059;52.132;21.062;2023-05-12T09:16:21;101150.63;;;25.25;22.16
39341;BME280;25059;52.132;21.062;2023-05-12T09:19:08;101095.41;;;23.73;22.13
39341;BME280;25059;52.132;21.062;2023-05-12T09:21:53;101123.16;;;24.38;22.74
39341;BME280;25059;52.132;21.062;2023-05-12T09:25:19;101131.50;;;25.58;21.98
39341;BME280;25059;52.132;21.062;2023-05-12T09:32:13;101131.53;;;25.28;21.81
39341;BME280;25059;52.132;21.062;2023-05-12T09:35:10;101041.50;;;24.80;22.03
39341;BME280;25059;52.132;21.062;2023-05-12T09:39:12;101143.63;;;25.13;21.46
39341;BME280;25059;52.132;21.062;2023-05-12T09:42:10;101117.41;;;25.05;20.94
39341;BME280;25059;52.132;21.062;2023-05-12T09:45:48;101151.03;;;25.20;20.86
39341;BME280;25059;52.132;21.062;2023-05-12T09:52:08;101141.53;;;25.87;20.63
39341;BME280;25059;52.132;21.062;2023-05-12T09:52:58;101086.19;;;25.73;20.69
39341;BME280;25059;52.132;21.062;2023-05-12T09:56:16;101134.34;;;26.35;20.80
39341;BME280;25059;52.132;21.062;2023-05-12T09:59:38;101113.31;;;26.10;20.98
39341;BME280;25059;52.132;21.062;2023-05-12T10:06:43;101130.22;;;26.60;20.17
39341;BME280;25059;52.132;21.062;2023-05-12T10:09:37;101097.19;;;25.60;19.79
39341;BME280;25059;52.132;21.062;2023-05-12T10:12:37;101113.59;;;26.26;19.94
39341;BME280;25059;52.132;21.062;2023-05-12T10:15:30;101117.31;;;27.48;18.26
39341;BME280;25059;52.132;21.062;2023-05-12T10:18:23;101109.97;;;29.68;16.44
39341;BME280;25059;52.132;21.062;2023-05-12T10:21:14;101117.94;;;30.61;16.02
39341;BME280;25059;52.132;21.062;2023-05-12T10:24:24;101115.00;;;32.35;15.42
39341;BME280;25059;52.132;21.062;2023-05-12T10:27:17;101103.78;;;33.20;15.03
39341;BME280;25059;52.132;21.062;2023-05-12T10:30:31;101112.22;;;35.04;14.23
39341;BME280;25059;52.132;21.062;2023-05-12T10:33:40;101131.03;;;36.22;13.66
39341;BME280;25059;52.132;21.062;2023-05-12T10:36:51;101120.47;;;35.45;13.37
39341;BME280;25059;52.132;21.062;2023-05-12T10:39:52;101110.97;;;37.20;12.88
39341;BME280;25059;52.132;21.062;2023-05-12T10:43:40;101048.84;;;36.15;12.33
39341;BME280;25059;52.132;21.062;2023-05-12T10:46:36;101125.81;;;36.80;12.67
39341;BME280;25059;52.132;21.062;2023-05-12T10:54:00;101080.28;;;36.79;11.91
39341;BME280;25059;52.132;21.062;2023-05-12T10:57:23;101041.03;;;36.85;12.43
39341;BME280;25059;52.132;21.062;2023-05-12T11:00:49;101069.19;;;38.58;11.77
39341;BME280;25059;52.132;21.062;2023-05-12T11:03:39;101090.97;;;38.59;11.58
39341;BME280;25059;52.132;21.062;2023-05-12T11:10:03;101101.38;;;38.75;11.57
39341;BME280;25059;52.132;21.062;2023-05-12T11:13:02;101088.75;;;39.11;11.40
39341;BME280;25059;52.132;21.062;2023-05-12T11:16:01;101100.28;;;39.20;11.78
39341;BME280;25059;52.132;21.062;2023-05-12T11:22:55;101062.50;;;39.63;10.95
39341;BME280;25059;52.132;21.062;2023-05-12T11:25:54;101080.94;;;39.26;11.11
39341;BME280;25059;52.132;21.062;2023-05-12T11:28:46;101102.63;;;39.71;11.18
39341;BME280;25059;52.132;21.062;2023-05-12T11:32:01;101100.66;;;41.37;10.79
39341;BME280;25059;52.132;21.062;2023-05-12T11:35:16;101107.31;;;41.64;10.54
39341;BME280;25059;52.132;21.062;2023-05-12T11:38:50;101105.06;;;40.21;10.55
39341;BME280;25059;52.132;21.062;2023-05-12T11:41:44;101111.38;;;39.98;10.23
39341;BME280;25059;52.132;21.062;2023-05-12T11:44:51;101111.78;;;40.13;10.13
39341;BME280;25059;52.132;21.062;2023-05-12T11:55:21;101108.47;;;39.63;11.04
39341;BME280;25059;52.132;21.062;2023-05-12T11:58:20;101093.53;;;40.00;10.74
39341;BME280;25059;52.132;21.062;2023-05-12T12:01:44;101090.56;;;39.54;11.09
39341;BME280;25059;52.132;21.062;2023-05-12T12:04:50;101105.38;;;40.66;10.49
39341;BME280;25059;52.132;21.062;2023-05-12T12:08:32;101057.34;;;39.67;10.63
39341;BME280;25059;52.132;21.062;2023-05-12T12:11:32;101071.78;;;39.14;10.65
39341;BME280;25059;52.132;21.062;2023-05-12T12:14:47;101068.72;;;40.00;10.32
39341;BME280;25059;52.132;21.062;2023-05-12T12:17:33;101085.50;;;40.87;10.25
39341;BME280;25059;52.132;21.062;2023-05-12T12:23:49;101090.31;;;40.80;10.06
39341;BME280;25059;52.132;21.062;2023-05-12T12:26:56;101085.47;;;41.51;9.42
39341;BME280;25059;52.132;21.062;2023-05-12T12:30:16;101089.03;;;41.91;9.59
39341;BME280;25059;52.132;21.062;2023-05-12T12:33:23;101012.22;;;40.33;9.98
39341;BME280;25059;52.132;21.062;2023-05-12T12:36:11;101057.06;;;40.40;9.74
39341;BME280;25059;52.132;21.062;2023-05-12T12:38:56;101063.91;;;40.49;10.24
39341;BME280;25059;52.132;21.062;2023-05-12T12:42:09;101068.81;;;42.19;9.45
39341;BME280;25059;52.132;21.062;2023-05-12T12:45:13;101073.38;;;41.80;9.54
39341;BME280;25059;52.132;21.062;2023-05-12T12:48:38;101078.47;;;41.72;9.63
39341;BME280;25059;52.132;21.062;2023-05-12T12:52:02;101061.31;;;39.71;9.66
39341;BME280;25059;52.132;21.062;2023-05-12T12:55:09;101043.91;;;41.17;9.42
39341;BME280;25059;52.132;21.062;2023-05-12T12:58:09;101056.41;;;42.39;9.36
39341;BME280;25059;52.132;21.062;2023-05-12T13:01:16;101041.72;;;41.88;9.01
39341;BME280;25059;52.132;21.062;2023-05-12T13:04:17;101074.50;;;41.68;9.38
39341;BME280;25059;52.132;21.062;2023-05-12T13:07:09;101066.22;;;43.45;8.79
39341;BME280;25059;52.132;21.062;2023-05-12T13:09:54;101064.19;;;44.17;9.14
39341;BME280;25059;52.132;21.062;2023-05-12T13:12:38;101051.72;;;43.38;9.65
39341;BME280;25059;52.132;21.062;2023-05-12T13:15:29;101061.22;;;44.65;8.42
39341;BME280;25059;52.132;21.062;2023-05-12T13:18:22;101038.41;;;43.35;8.90
39341;BME280;25059;52.132;21.062;2023-05-12T13:21:10;101059.63;;;41.85;9.42
39341;BME280;25059;52.132;21.062;2023-05-12T13:24:04;101059.13;;;43.11;9.50
39341;BME280;25059;52.132;21.062;2023-05-12T13:26:50;101047.28;;;42.38;9.28
39341;BME280;25059;52.132;21.062;2023-05-12T13:29:38;101046.97;;;43.12;9.15
39341;BME280;25059;52.132;21.062;2023-05-12T13:32:25;101033.44;;;42.94;8.82
39341;BME280;25059;52.132;21.062;2023-05-12T13:35:18;101063.44;;;43.45;9.42
39341;BME280;25059;52.132;21.062;2023-05-12T13:38:03;101053.19;;;43.46;8.98
39341;BME280;25059;52.132;21.062;2023-05-12T13:40:54;101018.44;;;44.61;9.26
39341;BME280;25059;52.132;21.062;2023-05-12T13:43:44;101022.19;;;45.65;8.05
39341;BME280;25059;52.132;21.062;2023-05-12T13:46:30;101042.78;;;45.69;8.05
39341;BME280;25059;52.132;21.062;2023-05-12T13:49:15;101050.06;;;44.18;8.40
39341;BME280;25059;52.132;21.062;2023-05-12T13:52:00;101043.66;;;41.59;9.80
39341;BME280;25059;52.132;21.062;2023-05-12T13:58:27;101096.16;;;38.42;10.97
39341;BME280;25059;52.132;21.062;2023-05-12T14:01:11;101074.59;;;39.44;10.29
39341;BME280;25059;52.132;21.062;2023-05-12T14:03:57;101103.47;;;38.30;10.92
39341;BME280;25059;52.132;21.062;2023-05-12T14:06:41;101069.88;;;40.34;10.08
39341;BME280;25059;52.132;21.062;2023-05-12T14:09:26;101033.72;;;42.92;9.37
39341;BME280;25059;52.132;21.062;2023-05-12T14:12:11;101059.63;;;43.73;9.12
39341;BME280;25059;52.132;21.062;2023-05-12T14:14:56;101028.28;;;45.57;8.47
39341;BME280;25059;52.132;21.062;2023-05-12T14:17:42;101058.09;;;45.04;8.35
39341;BME280;25059;52.132;21.062;2023-05-12T14:20:27;101041.28;;;43.99;8.87
39341;BME280;25059;52.132;21.062;2023-05-12T14:23:11;101038.31;;;44.85;8.19
39341;BME280;25059;52.132;21.062;2023-05-12T14:25:56;101033.53;;;44.38;8.34
39341;BME280;25059;52.132;21.062;2023-05-12T14:28:41;101023.72;;;43.62;8.73
39341;BME280;25059;52.132;21.062;2023-05-12T14:31:25;101040.19;;;45.42;8.39
39341;BME280;25059;52.132;21.062;2023-05-12T14:34:10;101043.91;;;44.95;8.47
39341;BME280;25059;52.132;21.062;2023-05-12T14:36:57;101023.59;;;45.83;8.08
39341;BME280;25059;52.132;21.062;2023-05-12T14:39:41;101021.66;;;46.24;7.88
39341;BME280;25059;52.132;21.062;2023-05-12T14:42:25;101028.03;;;45.94;8.55
39341;BME280;25059;52.132;21.062;2023-05-12T14:45:12;101033.06;;;44.89;8.51
39341;BME280;25059;52.132;21.062;2023-05-12T14:47:57;101046.41;;;44.50;8.75
39341;BME280;25059;52.132;21.062;2023-05-12T14:50:42;101027.84;;;42.16;9.38
39341;BME280;25059;52.132;21.062;2023-05-12T14:53:27;101026.16;;;41.25;9.58
39341;BME280;25059;52.132;21.062;2023-05-12T14:56:12;101016.03;;;39.37;10.24
39341;BME280;25059;52.132;21.062;2023-05-12T14:58:56;101023.47;;;38.38;11.43
39341;BME280;25059;52.132;21.062;2023-05-12T15:01:41;101036.78;;;39.81;10.50
39341;BME280;25059;52.132;21.062;2023-05-12T15:04:26;101037.03;;;40.91;9.86
39341;BME280;25059;52.132;21.062;2023-05-12T15:07:11;101036.75;;;41.05;9.86
39341;BME280;25059;52.132;21.062;2023-05-12T15:09:56;101032.53;;;39.55;10.61
39341;BME280;25059;52.132;21.062;2023-05-12T15:12:40;101026.31;;;40.01;10.50
39341;BME280;25059;52.132;21.062;2023-05-12T15:15:25;101029.50;;;41.84;9.94
39341;BME280;25059;52.132;21.062;2023-05-12T15:18:09;101027.72;;;43.00;9.23
39341;BME280;25059;52.132;21.062;2023-05-12T15:20:54;101025.84;;;40.98;10.01
39341;BME280;25059;52.132;21.062;2023-05-12T15:23:39;101021.03;;;38.92;10.86
39341;BME280;25059;52.132;21.062;2023-05-12T15:26:26;101027.56;;;36.57;12.38
39341;BME280;25059;52.132;21.062;2023-05-12T15:29:42;101040.00;;;36.27;13.05
39341;BME280;25059;52.132;21.062;2023-05-12T15:32:27;101026.03;;;34.45;13.68
39341;BME280;25059;52.132;21.062;2023-05-12T15:35:12;101010.50;;;36.15;12.95
39341;BME280;25059;52.132;21.062;2023-05-12T15:37:57;101022.47;;;38.33;12.24
39341;BME280;25059;52.132;21.062;2023-05-12T15:40:42;101030.28;;;37.41;12.38
39341;BME280;25059;52.132;21.062;2023-05-12T15:43:27;101022.22;;;38.16;11.73
39341;BME280;25059;52.132;21.062;2023-05-12T15:46:11;101021.59;;;37.44;11.65
39341;BME280;25059;52.132;21.062;2023-05-12T15:48:56;101031.47;;;35.55;12.65
39341;BME280;25059;52.132;21.062;2023-05-12T15:51:42;101023.22;;;35.36;12.90